createdAt,value
2018-04-01T00:02:03.233Z,6.2
2018-04-01T00:07:03.576Z,6.2
2018-04-01T00:12:03.602Z,6.3
2018-04-01T00:17:03.751Z,6.2
2018-04-01T00:22:03.470Z,6.5
2018-04-01T00:27:03.432Z,6.7
2018-04-01T00:32:03.552Z,6.6
2018-04-01T00:37:03.402Z,6.7
2018-04-01T00:42:03.315Z,6.9
2018-04-01T00:47:03.344Z,6.8
2018-04-01T00:52:03.562Z,7.0
2018-04-01T00:57:03.266Z,7.1
2018-04-01T01:02:03.372Z,7.0
2018-04-01T01:07:03.088Z,7.0
2018-04-01T01:12:03.236Z,7.0
2018-04-01T01:17:03.276Z,7.0
2018-04-01T01:22:03.031Z,6.9
2018-04-01T01:27:03.057Z,6.9
2018-04-01T01:32:02.910Z,6.8
2018-04-01T01:37:03.326Z,6.8
2018-04-01T01:42:03.310Z,6.7
2018-04-01T01:47:03.173Z,6.6
2018-04-01T01:52:02.904Z,6.6
2018-04-01T01:57:02.896Z,6.7
2018-04-01T02:02:02.947Z,6.7
2018-04-01T02:07:03.286Z,6.7
2018-04-01T02:12:03.297Z,6.7
2018-04-01T02:17:03.427Z,6.9
2018-04-01T02:22:03.070Z,6.8
2018-04-01T02:27:02.942Z,6.9
2018-04-01T02:32:02.761Z,6.8
2018-04-01T02:37:03.439Z,6.8
2018-04-01T02:42:03.434Z,6.8
2018-04-01T02:47:03.675Z,6.9
2018-04-01T02:52:02.843Z,6.9
2018-04-01T02:57:02.960Z,6.9
2018-04-01T03:02:03.043Z,6.9
2018-04-01T03:07:03.247Z,6.9
2018-04-01T03:12:03.471Z,6.9
2018-04-01T03:17:03.659Z,6.9
2018-04-01T03:22:02.835Z,6.9
2018-04-01T03:27:03.049Z,6.9
2018-04-01T03:32:03.156Z,6.9
2018-04-01T03:37:03.142Z,6.9
2018-04-01T03:42:03.208Z,6.9
2018-04-01T03:47:03.290Z,6.9
2018-04-01T03:52:03.470Z,6.9
2018-04-01T03:57:03.484Z,6.9
2018-04-01T04:02:02.764Z,7.0
2018-04-01T04:07:03.189Z,7.0
2018-04-01T04:12:03.223Z,7.0
2018-04-01T04:17:03.407Z,6.9
2018-04-01T04:22:03.582Z,6.8
2018-04-01T04:27:03.670Z,6.6
2018-04-01T04:32:03.232Z,6.6
2018-04-01T04:37:02.998Z,6.6
2018-04-01T04:42:03.114Z,6.6
2018-04-01T04:47:10.621Z,6.6
2018-04-01T04:52:03.490Z,6.6
2018-04-01T04:57:02.776Z,6.7
2018-04-01T05:02:06.594Z,6.7
2018-04-01T05:07:03.195Z,6.7
2018-04-01T05:12:03.482Z,6.7
2018-04-01T05:17:17.004Z,6.7
2018-04-01T05:22:03.430Z,6.6
2018-04-01T05:27:03.234Z,6.4
2018-04-01T05:32:18.205Z,6.4
2018-04-01T05:37:03.043Z,6.4
2018-04-01T05:42:03.294Z,6.3
2018-04-01T05:47:13.984Z,6.4
2018-04-01T05:52:02.652Z,6.5
2018-04-01T05:57:02.887Z,6.4
2018-04-01T06:02:13.464Z,6.6
2018-04-01T06:07:03.399Z,6.7
2018-04-01T06:12:03.597Z,6.8
2018-04-01T06:17:12.394Z,6.8
2018-04-01T06:22:03.105Z,6.8
2018-04-01T06:27:03.353Z,6.9
2018-04-01T06:32:13.782Z,7.2
2018-04-01T06:37:02.697Z,7.2
2018-04-01T06:42:02.877Z,7.4
2018-04-01T06:47:13.506Z,7.4
2018-04-01T06:52:03.295Z,7.3
2018-04-01T06:57:03.500Z,7.3
2018-04-01T07:02:07.012Z,7.1
2018-04-01T07:07:02.964Z,7.1
2018-04-01T07:12:03.234Z,6.9
2018-04-01T07:17:07.614Z,6.9
2018-04-01T07:22:02.756Z,6.8
2018-04-01T07:27:03.008Z,6.7
2018-04-01T07:32:10.829Z,6.7
2018-04-01T07:37:03.626Z,6.6
2018-04-01T07:42:03.052Z,6.8
2018-04-01T07:47:12.845Z,6.8
2018-04-01T07:52:03.463Z,6.8
2018-04-01T07:57:02.591Z,7.0
2018-04-01T08:02:12.507Z,7.2
2018-04-01T08:07:03.211Z,7.2
2018-04-01T08:12:03.396Z,7.4
2018-04-01T08:17:13.358Z,7.7
2018-04-01T08:22:02.729Z,8.0
2018-04-01T08:27:02.941Z,8.2
2018-04-01T08:32:13.484Z,8.2
2018-04-01T08:37:03.290Z,8.3
2018-04-01T08:42:03.474Z,8.3
2018-04-01T08:47:10.496Z,8.2
2018-04-01T08:52:02.789Z,8.2
2018-04-01T08:57:02.902Z,8.2
2018-04-01T09:02:10.152Z,8.4
2018-04-01T09:07:03.408Z,8.4
2018-04-01T09:12:02.701Z,8.9
2018-04-01T09:17:13.574Z,8.9
2018-04-01T09:22:03.118Z,8.5
2018-04-01T09:27:03.304Z,8.3
2018-04-01T09:32:13.783Z,8.2
2018-04-01T09:37:03.662Z,8.0
2018-04-01T09:42:02.805Z,8.0
2018-04-01T09:47:13.294Z,8.1
2018-04-01T09:52:03.104Z,8.2
2018-04-01T09:57:03.367Z,9.1
2018-04-01T10:02:13.800Z,9.5
2018-04-01T10:07:02.911Z,9.5
2018-04-01T10:12:03.071Z,9.7
2018-04-01T10:17:14.523Z,10.2
2018-04-01T10:22:03.597Z,10.5
2018-04-01T10:27:02.702Z,10.2
2018-04-01T10:32:14.681Z,10.2
2018-04-01T10:37:03.095Z,9.9
2018-04-01T10:42:03.255Z,10.1
2018-04-01T10:47:03.817Z,10.1
2018-04-01T10:52:02.802Z,10.5
2018-04-01T10:57:03.019Z,10.6
2018-04-01T11:02:14.175Z,10.0
2018-04-01T11:07:03.267Z,8.7
2018-04-01T11:12:02.907Z,8.7
2018-04-01T11:17:11.721Z,8.6
2018-04-01T11:22:02.863Z,8.6
2018-04-01T11:27:03.007Z,8.8
2018-04-01T11:32:13.658Z,8.7
2018-04-01T11:37:03.518Z,9.1
2018-04-01T11:42:03.547Z,9.1
2018-04-01T11:47:09.428Z,9.1
2018-04-01T11:52:02.890Z,9.8
2018-04-01T11:57:03.088Z,10.0
2018-04-01T12:02:13.572Z,10.4
2018-04-01T12:07:03.616Z,10.3
2018-04-01T12:12:02.806Z,10.2
2018-04-01T12:17:10.285Z,9.2
2018-04-01T12:22:03.372Z,8.6
2018-04-01T12:27:03.508Z,8.6
2018-04-01T12:32:14.584Z,8.1
2018-04-01T12:37:02.791Z,8.0
2018-04-01T12:42:02.918Z,9.4
2018-04-01T12:47:17.605Z,9.4
2018-04-01T12:52:03.329Z,9.3
2018-04-01T12:57:03.500Z,9.9
2018-04-01T13:02:12.893Z,10.5
2018-04-01T13:07:03.106Z,10.5
2018-04-01T13:12:03.308Z,11.0
2018-04-01T13:17:11.099Z,11.3
2018-04-01T13:22:02.721Z,11.3
2018-04-01T13:27:02.949Z,12.1
2018-04-01T13:32:13.237Z,12.0
2018-04-01T13:37:03.416Z,11.9
2018-04-01T13:42:03.553Z,11.8
2018-04-01T13:47:12.354Z,10.8
2018-04-01T13:52:02.798Z,10.3
2018-04-01T13:57:02.966Z,10.2
2018-04-01T14:02:13.492Z,10.9
2018-04-01T14:07:03.413Z,11.5
2018-04-01T14:12:02.687Z,11.7
2018-04-01T14:17:13.252Z,10.8
2018-04-01T14:22:03.049Z,9.7
2018-04-01T14:27:03.243Z,9.0
2018-04-01T14:32:16.972Z,9.0
2018-04-01T14:37:02.775Z,8.3
2018-04-01T14:42:02.877Z,9.4
2018-04-01T14:47:04.398Z,9.3
2018-04-01T14:52:03.063Z,9.1
2018-04-01T14:57:03.315Z,9.0
2018-04-01T15:02:12.261Z,9.1
2018-04-01T15:07:02.733Z,9.7
2018-04-01T15:12:02.974Z,12.3
2018-04-01T15:17:13.313Z,11.2
2018-04-01T15:22:03.592Z,11.1
2018-04-01T15:27:02.716Z,10.0
2018-04-01T15:32:07.317Z,10.7
2018-04-01T15:37:02.882Z,10.7
2018-04-01T15:42:03.076Z,10.1
2018-04-01T15:47:11.708Z,10.1
2018-04-01T15:52:03.439Z,9.5
2018-04-01T15:57:10.370Z,9.3
2018-04-01T16:02:04.951Z,9.2
2018-04-01T16:07:03.471Z,9.0
2018-04-01T16:12:02.718Z,10.1
2018-04-01T16:17:21.523Z,10.1
2018-04-01T16:22:03.157Z,10.8
2018-04-01T16:27:03.310Z,10.5
2018-04-01T16:32:13.802Z,10.4
2018-04-01T16:37:02.631Z,9.1
2018-04-01T16:42:02.779Z,9.1
2018-04-01T16:47:11.278Z,8.5
2018-04-01T16:52:03.180Z,8.5
2018-04-01T16:57:03.401Z,9.4
2018-04-01T17:02:12.290Z,13.4
2018-04-01T17:07:02.943Z,13.8
2018-04-01T17:12:03.207Z,13.8
2018-04-01T17:17:17.177Z,9.9
2018-04-01T17:22:02.697Z,9.0
2018-04-01T17:27:03.200Z,9.0
2018-04-01T17:32:15.872Z,8.0
2018-04-01T17:37:06.618Z,7.8
2018-04-01T17:42:03.298Z,7.8
2018-04-01T17:47:12.612Z,7.6
2018-04-01T17:52:02.718Z,7.4
2018-04-01T17:57:02.906Z,7.4
2018-04-01T18:02:15.728Z,7.4
2018-04-01T18:07:03.062Z,7.3
2018-04-01T18:12:03.521Z,7.2
2018-04-01T18:17:11.126Z,7.1
2018-04-01T18:22:03.211Z,6.8
2018-04-01T18:27:03.278Z,6.8
2018-04-01T18:32:05.723Z,6.8
2018-04-01T18:37:03.612Z,6.6
2018-04-01T18:42:02.800Z,6.6
2018-04-01T18:47:03.298Z,6.5
2018-04-01T18:52:03.212Z,6.5
2018-04-01T18:57:03.250Z,6.3
2018-04-01T19:02:03.443Z,6.2
2018-04-01T19:07:03.668Z,6.1
2018-04-01T19:12:02.920Z,6.1
2018-04-01T19:17:03.320Z,6.1
2018-04-01T19:22:03.304Z,6.0
2018-04-01T19:27:03.410Z,6.0
2018-04-01T19:32:05.157Z,5.9
2018-04-01T19:37:02.768Z,5.9
2018-04-01T19:42:02.915Z,5.9
2018-04-01T19:47:03.054Z,5.9
2018-04-01T19:52:03.150Z,5.8
2018-04-01T19:57:03.214Z,5.9
2018-04-01T20:02:03.440Z,5.8
2018-04-01T20:07:03.640Z,5.8
2018-04-01T20:12:02.905Z,5.7
2018-04-01T20:17:03.298Z,5.6
2018-04-01T20:22:03.294Z,5.6
2018-04-01T20:27:03.368Z,5.4
2018-04-01T20:32:03.552Z,5.4
2018-04-01T20:37:03.581Z,5.3
2018-04-01T20:42:02.779Z,5.3
2018-04-01T20:47:03.038Z,5.2
2018-04-01T20:52:03.203Z,5.1
2018-04-01T20:57:03.255Z,5.0
2018-04-01T21:02:03.676Z,5.0
2018-04-01T21:07:03.678Z,4.9
2018-04-01T21:12:03.096Z,4.9
2018-04-01T21:17:03.837Z,4.8
2018-04-01T21:22:03.331Z,4.8
2018-04-01T21:27:03.421Z,4.8
2018-04-01T21:32:03.431Z,4.8
2018-04-01T21:37:03.868Z,4.7
2018-04-01T21:42:02.857Z,4.6
2018-04-01T21:47:03.332Z,4.7
2018-04-01T21:52:03.415Z,4.5
2018-04-01T21:57:03.410Z,4.5
2018-04-01T22:02:03.611Z,4.3
2018-04-01T22:07:03.872Z,4.3
2018-04-01T22:12:03.018Z,4.2
2018-04-01T22:22:03.714Z,4.5
2018-04-01T22:27:03.378Z,4.4
2018-04-01T22:32:03.333Z,4.7
2018-04-01T22:37:03.024Z,4.7
2018-04-01T22:42:02.935Z,4.8
2018-04-01T22:47:02.938Z,4.8
2018-04-01T22:52:03.460Z,4.8
2018-04-01T22:57:03.381Z,4.9
2018-04-01T23:02:03.432Z,4.9
2018-04-01T23:07:02.990Z,4.9
2018-04-01T23:12:03.060Z,4.9
2018-04-01T23:17:03.286Z,4.9
2018-04-01T23:22:02.901Z,4.8
2018-04-01T23:27:02.914Z,4.8
2018-04-01T23:32:02.892Z,4.8
2018-04-01T23:37:02.755Z,4.7
2018-04-01T23:42:02.751Z,4.6
2018-04-01T23:47:02.810Z,4.6
2018-04-01T23:52:03.196Z,4.6
2018-04-01T23:57:03.204Z,4.4
